Flight Track Log - Related Links

Times and Time Zones

All times are in EDT time to prevent confusion due to time zone crossing. See the N770NC flight status page for this flight to view local times or setup timezone preferences in your user account.

Time Position Orientation Groundspeed Altitude Reporting Facility
EDT Latitude Longitude Course Direction KTS MPH feet Rate Location/Type
Wed 09:45:44 PM 33.6333 -84.4500 90° East 161 185 2,200  Level Atlanta TRACON
Wed 09:46:50 PM 33.6000 -84.5333 244° Southwest 256 295 4,300 2,143 Climbing Atlanta TRACON
Wed 09:47:50 PM 33.5500 -84.5833 220° Southwest 273 314 6,700 2,350 Climbing Atlanta TRACON
Wed 09:48:00 PM 33.6243 -84.0726 92° East  Level FlightAware Approximate
Wed 09:48:50 PM 33.4667 -84.5833 180° South 293 337 9,000  Level Atlanta TRACON
Wed 09:49:00 PM 33.6200 -83.9542 92° East  Level FlightAware Approximate
Wed 09:50:00 PM 33.6061 -83.8369 90° East  Level Estimated
Wed 09:50:44 PM 33.4536 -84.3922 95° East 295 339 11,600  Level Atlanta Center
Wed 09:51:00 PM 33.5922 -83.7196 90° East  Level Estimated
Wed 09:51:44 PM 33.4642 -84.2681 84° East 350 403 13,900  Level Atlanta Center
Wed 09:52:44 PM 33.4833 -84.1408 80° East 377 434 15,600 1,500 Climbing Atlanta Center
Wed 09:53:44 PM 33.5000 -84.0114 81° East 390 449 16,900 700 Climbing Atlanta Center
Wed 09:54:44 PM 33.5164 -83.8694 82° East 405 466 17,000 50 Climbing Atlanta Center
Wed 09:55:44 PM 33.5206 -83.7322 88° East 417 480 17,000  Level Atlanta Center
Wed 09:56:44 PM 33.5178 -83.5928 91° East 417 480 17,000  Level Atlanta Center
Wed 09:57:44 PM 33.5214 -83.4558 88° East 412 474 17,000 -750 Level Atlanta Center
Wed 09:58:44 PM 33.5208 -83.3261 90° East 398 458 15,500 -2,050 Descending Atlanta Center
Wed 09:59:44 PM 33.5242 -83.1967 88° East 389 448 12,900 -2,150 Descending Atlanta Center
Wed 10:00:44 PM 33.5294 -83.0694 87° East 382 440 11,200 -950 Descending Atlanta Center
Wed 10:01:44 PM 33.5306 -82.9597 89° East 374 430 11,000 -100 Descending Atlanta Center
Wed 10:02:44 PM 33.5358 -82.8400 87° East 360 414 11,000 -350 Level Atlanta Center
Wed 10:03:44 PM 33.5408 -82.7228 87° East 339 390 10,300 -1,250 Descending Atlanta Center
Wed 10:04:44 PM 33.5419 -82.6256 89° East 313 360 8,500 -1,700 Descending Atlanta Center
Wed 10:05:44 PM 33.5158 -82.5414 110° East 296 341 6,900 -1,650 Descending Atlanta Center
Wed 10:06:44 PM 33.4875 -82.4497 110° East 290 334 5,200 -1,700 Descending Atlanta Center
Wed 10:07:44 PM 33.4592 -82.3631 111° Southeast 284 327 3,500 -1,100 Descending Atlanta Center
Wed 10:08:44 PM 33.4331 -82.2789 110° East 284 327 3,000 -250 Descending Atlanta Center
Wed 10:09:44 PM 33.4089 -82.1972 109° East 267 307 3,000  Level Atlanta Center
Wed 10:10:44 PM 33.3847 -82.1206 111° Southeast 256 295 3,000 -150 Level Atlanta Center
Wed 10:11:44 PM 33.3464 -82.0742 135° Southeast 234 269 2,700 -300 Descending Atlanta Center

Login

Don't have an account? Register now (free) for customized features, flight alerts, and more!